createdAt,value
2023-03-17T00:00:33.876Z,98003.13
2023-03-17T00:02:35.810Z,98002.28
2023-03-17T00:04:37.152Z,98004.13
2023-03-17T00:06:38.458Z,97998.19
2023-03-17T00:08:39.789Z,98007.56
2023-03-17T00:10:41.091Z,98000.78
2023-03-17T00:12:42.594Z,97997.47
2023-03-17T00:14:46.336Z,97998.31
2023-03-17T00:16:48.604Z,97997.41
2023-03-17T00:18:50.168Z,97999.91
2023-03-17T00:20:52.505Z,97994.78
2023-03-17T00:22:54.445Z,97990.59
2023-03-17T00:24:55.940Z,97987.16
2023-03-17T00:26:57.332Z,97990.59
2023-03-17T00:28:58.741Z,97984.63
2023-03-17T00:31:01.322Z,97994.00
2023-03-17T00:33:02.744Z,97990.50
2023-03-17T00:35:06.195Z,97979.41
2023-03-17T00:37:07.540Z,97980.25
2023-03-17T00:39:08.847Z,97973.44
2023-03-17T00:41:10.706Z,97981.88
2023-03-17T00:43:12.667Z,97970.78
2023-03-17T00:45:14.475Z,97969.88
2023-03-17T00:47:16.284Z,97969.84
2023-03-17T00:49:20.581Z,97969.81
2023-03-17T00:51:22.024Z,97963.84
2023-03-17T00:53:23.387Z,97966.41
2023-03-17T00:55:24.720Z,97970.66
2023-03-17T00:57:26.202Z,97959.56
2023-03-17T00:59:27.581Z,97956.16
2023-03-17T01:01:28.901Z,97961.28
2023-03-17T01:03:31.052Z,97946.84
2023-03-17T01:05:32.663Z,97952.88
2023-03-17T01:07:34.005Z,97964.81
2023-03-17T01:09:35.341Z,97939.25
2023-03-17T01:11:36.647Z,97947.72
2023-03-17T01:13:38.033Z,97942.66
2023-03-17T01:15:39.340Z,97931.59
2023-03-17T01:17:40.737Z,97932.38
2023-03-17T01:19:42.524Z,97922.06
2023-03-17T01:21:43.891Z,97922.97
2023-03-17T01:23:45.236Z,97930.66
2023-03-17T01:25:46.537Z,97919.56
2023-03-17T01:27:47.892Z,97928.97
2023-03-17T01:29:49.412Z,97926.41
2023-03-17T01:31:50.779Z,97923.91
2023-03-17T01:33:52.843Z,97912.91
2023-03-17T01:35:54.208Z,97919.63
2023-03-17T01:37:57.165Z,97922.22
2023-03-17T01:39:58.489Z,97911.28
2023-03-17T01:42:02.206Z,97913.88
2023-03-17T01:44:03.587Z,97907.13
2023-03-17T01:46:04.924Z,97906.34
2023-03-17T01:48:06.369Z,97907.25
2023-03-17T01:50:07.785Z,97892.00
2023-03-17T01:52:09.210Z,97891.16
2023-03-17T01:54:10.644Z,97892.00
2023-03-17T01:56:12.018Z,97886.88
2023-03-17T01:58:13.712Z,97882.63
2023-03-17T02:00:16.158Z,97885.13
2023-03-17T02:02:18.040Z,97887.66
2023-03-17T02:04:19.576Z,97877.44
2023-03-17T02:06:20.935Z,97888.47
2023-03-17T02:08:22.260Z,97889.31
2023-03-17T02:10:24.107Z,97879.06
2023-03-17T02:12:25.452Z,97872.13
2023-03-17T02:14:26.792Z,97875.31
2023-03-17T02:16:28.156Z,97876.19
2023-03-17T02:18:29.509Z,97863.53
2023-03-17T02:20:31.062Z,97860.31
2023-03-17T02:22:32.812Z,97868.06
2023-03-17T02:24:34.163Z,97872.41
2023-03-17T02:26:35.514Z,97870.69
2023-03-17T02:28:36.892Z,97864.63
2023-03-17T02:30:38.275Z,97862.94
2023-03-17T02:32:39.748Z,97873.19
2023-03-17T02:34:41.464Z,97863.00
2023-03-17T02:36:42.863Z,97874.16
2023-03-17T02:38:44.250Z,97880.13
2023-03-17T02:40:45.632Z,97880.16
2023-03-17T02:42:46.950Z,97875.97
2023-03-17T02:44:48.523Z,97880.28
2023-03-17T02:46:49.920Z,97875.97
2023-03-17T02:48:51.291Z,97858.94
2023-03-17T02:50:52.605Z,97845.28
2023-03-17T02:52:54.023Z,97853.88
2023-03-17T02:54:55.406Z,97849.59
2023-03-17T02:56:56.706Z,97863.19
2023-03-17T02:58:58.034Z,97853.81
2023-03-17T03:00:59.463Z,97862.38
2023-03-17T03:03:00.843Z,97872.56
2023-03-17T03:05:02.141Z,97861.53
2023-03-17T03:07:04.095Z,97847.91
2023-03-17T03:09:05.684Z,97847.91
2023-03-17T03:11:07.105Z,97837.59
2023-03-17T03:13:08.693Z,97835.88
2023-03-17T03:15:10.001Z,97838.44
2023-03-17T03:17:11.348Z,97835.84
2023-03-17T03:19:12.897Z,97837.56
2023-03-17T03:21:14.363Z,97835.84
2023-03-17T03:23:16.260Z,97841.78
2023-03-17T03:25:17.901Z,97839.19
2023-03-17T03:27:19.241Z,97843.41
2023-03-17T03:29:20.652Z,97836.59
2023-03-17T03:31:22.891Z,97845.91
2023-03-17T03:33:25.611Z,97842.50
2023-03-17T03:35:26.956Z,97846.81
2023-03-17T03:37:28.392Z,97847.81
2023-03-17T03:39:29.701Z,97851.25
2023-03-17T03:41:31.165Z,97864.97
2023-03-17T03:43:32.495Z,97849.63
2023-03-17T03:45:33.841Z,97842.09
2023-03-17T03:47:35.370Z,97842.16
2023-03-17T03:49:36.669Z,97832.00
2023-03-17T03:51:37.997Z,97824.34
2023-03-17T03:53:39.291Z,97828.59
2023-03-17T03:55:40.847Z,97824.34
2023-03-17T03:57:42.150Z,97815.00
2023-03-17T03:59:43.569Z,97823.50
2023-03-17T04:01:45.668Z,97828.53
2023-03-17T04:03:47.423Z,97818.31
2023-03-17T04:05:48.920Z,97820.75
2023-03-17T04:07:50.656Z,97819.09
2023-03-17T04:09:52.307Z,97819.25
2023-03-17T04:11:53.616Z,97822.66
2023-03-17T04:13:54.929Z,97826.78
2023-03-17T04:15:56.546Z,97830.19
2023-03-17T04:17:57.913Z,97837.75
2023-03-17T04:19:59.280Z,97836.00
2023-03-17T04:22:00.742Z,97827.53
2023-03-17T04:24:02.606Z,97830.84
2023-03-17T04:26:04.290Z,97823.09
2023-03-17T04:28:05.646Z,97824.75
2023-03-17T04:30:06.996Z,97829.03
2023-03-17T04:32:08.337Z,97830.72
2023-03-17T04:34:09.652Z,97825.44
2023-03-17T04:36:10.992Z,97831.34
2023-03-17T04:38:12.357Z,97822.00
2023-03-17T04:40:13.690Z,97821.13
2023-03-17T04:42:15.038Z,97813.44
2023-03-17T04:44:16.364Z,97829.41
2023-03-17T04:46:17.688Z,97817.44
2023-03-17T04:48:18.991Z,97826.84
2023-03-17T04:50:20.421Z,97814.13
2023-03-17T04:52:21.733Z,97816.72
2023-03-17T04:54:23.065Z,97818.41
2023-03-17T04:56:24.401Z,97825.16
2023-03-17T04:58:30.754Z,97832.03
2023-03-17T05:00:38.662Z,97820.97
2023-03-17T05:02:40.080Z,97820.16
2023-03-17T05:04:42.110Z,97822.00
2023-03-17T05:06:43.515Z,97816.16
2023-03-17T05:08:47.590Z,97829.03
2023-03-17T05:10:48.957Z,97836.91
2023-03-17T05:12:50.287Z,97839.63
2023-03-17T05:14:51.596Z,97838.78
2023-03-17T05:16:53.056Z,97825.28
2023-03-17T05:18:55.282Z,97817.66
2023-03-17T05:20:56.839Z,97825.41
2023-03-17T05:22:58.196Z,97829.56
2023-03-17T05:24:59.806Z,97822.78
2023-03-17T05:27:01.120Z,97826.25
2023-03-17T05:29:02.463Z,97821.84
2023-03-17T05:31:03.915Z,97824.34
2023-03-17T05:33:05.352Z,97825.97
2023-03-17T05:35:06.742Z,97820.88
2023-03-17T05:37:08.093Z,97814.91
2023-03-17T05:39:09.428Z,97815.75
2023-03-17T05:41:11.166Z,97808.06
2023-03-17T05:43:12.576Z,97802.91
2023-03-17T05:45:13.878Z,97810.44
2023-03-17T05:47:15.528Z,97801.13
2023-03-17T05:49:16.854Z,97804.28
2023-03-17T05:51:18.191Z,97792.22
2023-03-17T05:53:19.516Z,97791.97
2023-03-17T05:55:20.917Z,97796.16
2023-03-17T05:57:22.244Z,97793.59
2023-03-17T05:59:23.564Z,97787.66
2023-03-17T06:01:24.864Z,97785.94
2023-03-17T06:03:26.303Z,97779.97
2023-03-17T06:05:27.693Z,97788.56
2023-03-17T06:07:41.009Z,97784.94
2023-03-17T06:09:49.949Z,97772.28
2023-03-17T06:11:51.294Z,97803.97
2023-03-17T06:13:52.604Z,97780.13
2023-03-17T06:15:54.086Z,97787.34
2023-03-17T06:17:55.422Z,97788.22
2023-03-17T06:19:56.785Z,97783.44
2023-03-17T06:21:58.116Z,97790.41
2023-03-17T06:23:59.415Z,97792.16
2023-03-17T06:26:00.716Z,97782.84
2023-03-17T06:28:03.822Z,97781.22
2023-03-17T06:30:05.799Z,97781.28
2023-03-17T06:32:19.763Z,97794.09
2023-03-17T06:34:21.879Z,97803.47
2023-03-17T06:36:23.337Z,97802.56
2023-03-17T06:38:24.719Z,97803.44
2023-03-17T06:40:26.063Z,97805.06
2023-03-17T06:42:28.135Z,97799.03
2023-03-17T06:44:29.497Z,97796.47
2023-03-17T06:46:30.996Z,97806.69
2023-03-17T06:48:32.768Z,97808.41
2023-03-17T06:50:34.083Z,97809.25
2023-03-17T06:52:36.052Z,97807.56
2023-03-17T06:54:37.425Z,97808.41
2023-03-17T06:56:38.776Z,97806.66
2023-03-17T06:58:40.154Z,97797.19
2023-03-17T07:00:41.645Z,97809.03
2023-03-17T07:02:43.147Z,97798.94
2023-03-17T07:04:44.463Z,97804.91
2023-03-17T07:06:46.096Z,97792.06
2023-03-17T07:08:47.610Z,97795.28
2023-03-17T07:10:49.133Z,97805.31
2023-03-17T07:12:50.444Z,97788.22
2023-03-17T07:14:52.153Z,97795.03
2023-03-17T07:16:53.514Z,97800.91
2023-03-17T07:18:55.322Z,97811.16
2023-03-17T07:20:56.677Z,97812.78
2023-03-17T07:22:58.112Z,97809.44
2023-03-17T07:24:59.470Z,97819.66
2023-03-17T07:27:00.943Z,97824.00
2023-03-17T07:29:02.452Z,97829.97
2023-03-17T07:31:05.800Z,97843.53
2023-03-17T07:33:07.290Z,97831.69
2023-03-17T07:35:08.726Z,97847.13
2023-03-17T07:37:10.420Z,97848.03
2023-03-17T07:39:12.150Z,97844.69
2023-03-17T07:41:16.426Z,97837.91
2023-03-17T07:43:17.846Z,97840.47
2023-03-17T07:45:19.179Z,97835.31
2023-03-17T07:47:21.003Z,97834.53
2023-03-17T07:49:38.114Z,97830.19
2023-03-17T07:51:43.337Z,97832.06
2023-03-17T07:53:45.189Z,97825.47
2023-03-17T07:55:46.564Z,97826.28
2023-03-17T07:57:47.937Z,97826.16
2023-03-17T07:59:49.700Z,97839.16
2023-03-17T08:01:51.086Z,97839.34
2023-03-17T08:03:52.562Z,97849.19
2023-03-17T08:05:55.914Z,97841.91
2023-03-17T08:07:57.219Z,97823.56
2023-03-17T08:09:58.888Z,97829.03
2023-03-17T08:12:00.217Z,97820.06
2023-03-17T08:14:02.717Z,97823.34
2023-03-17T08:16:04.044Z,97828.06
2023-03-17T08:18:05.550Z,97805.63
2023-03-17T08:20:06.863Z,97802.38
2023-03-17T08:22:08.283Z,97797.56
2023-03-17T08:24:09.879Z,97792.16
2023-03-17T08:26:11.378Z,97785.16
2023-03-17T08:28:12.740Z,97782.25
2023-03-17T08:30:14.088Z,97778.09
2023-03-17T08:32:15.471Z,97767.31
2023-03-17T08:34:16.781Z,97769.81
2023-03-17T08:36:18.527Z,97766.31
2023-03-17T08:38:19.835Z,97761.19
2023-03-17T08:40:21.174Z,97770.50
2023-03-17T08:42:22.502Z,97774.84
2023-03-17T08:44:23.827Z,97765.47
2023-03-17T08:46:25.386Z,97768.09
2023-03-17T08:48:26.805Z,97768.09
2023-03-17T08:50:28.212Z,97774.25
2023-03-17T08:52:29.639Z,97762.75
2023-03-17T08:54:30.968Z,97769.59
2023-03-17T08:56:32.272Z,97771.56
2023-03-17T08:58:33.579Z,97762.38
2023-03-17T09:00:35.998Z,97770.19
2023-03-17T09:02:37.595Z,97762.25
2023-03-17T09:06:51.894Z,97757.50
2023-03-17T09:09:02.926Z,97757.63
2023-03-17T09:11:05.429Z,97743.97
2023-03-17T09:13:06.902Z,97746.19
2023-03-17T09:15:08.232Z,97745.31
2023-03-17T09:17:09.716Z,97733.13
2023-03-17T09:19:11.032Z,97726.19
2023-03-17T09:21:12.374Z,97724.59
2023-03-17T09:23:13.717Z,97718.59
2023-03-17T09:25:15.127Z,97725.47
2023-03-17T09:27:16.430Z,97732.28
2023-03-17T09:29:17.775Z,97734.06
2023-03-17T09:31:19.172Z,97733.22
2023-03-17T09:33:20.996Z,97720.00
2023-03-17T09:35:22.451Z,97712.25
2023-03-17T09:37:24.151Z,97721.72
2023-03-17T09:39:25.452Z,97720.22
2023-03-17T09:41:27.013Z,97726.53
2023-03-17T09:43:31.107Z,97723.72
2023-03-17T09:45:32.629Z,97723.97
2023-03-17T09:47:33.977Z,97728.66
2023-03-17T09:49:35.839Z,97725.53
2023-03-17T09:51:37.648Z,97718.50
2023-03-17T09:53:39.020Z,97721.72
2023-03-17T09:55:41.583Z,97722.28
2023-03-17T09:57:42.952Z,97715.16
2023-03-17T09:59:44.983Z,97719.13
2023-03-17T10:01:46.465Z,97713.88
2023-03-17T10:03:47.967Z,97712.31
2023-03-17T10:05:49.502Z,97710.50
2023-03-17T10:07:50.904Z,97706.69
2023-03-17T10:09:52.730Z,97704.53
2023-03-17T10:11:54.064Z,97705.34
2023-03-17T10:13:55.838Z,97693.66
2023-03-17T10:15:57.255Z,97704.50
2023-03-17T10:17:58.592Z,97715.09
2023-03-17T10:19:59.993Z,97708.88
2023-03-17T10:22:01.740Z,97704.97
2023-03-17T10:24:03.064Z,97697.38
2023-03-17T10:26:04.629Z,97698.34
2023-03-17T10:28:08.727Z,97709.50
2023-03-17T10:30:10.720Z,97700.09
2023-03-17T10:32:12.646Z,97704.38
2023-03-17T10:34:14.016Z,97706.16
2023-03-17T10:36:15.731Z,97698.59
2023-03-17T10:38:17.212Z,97710.16
2023-03-17T10:40:19.705Z,97702.72
2023-03-17T10:42:21.288Z,97717.56
2023-03-17T10:44:22.745Z,97719.31
2023-03-17T10:46:24.471Z,97704.91
2023-03-17T10:48:26.652Z,97709.16
2023-03-17T10:50:32.526Z,97704.56
2023-03-17T10:52:34.955Z,97705.81
2023-03-17T10:54:37.043Z,97702.81
2023-03-17T10:56:38.393Z,97706.06
2023-03-17T10:58:39.744Z,97706.75
2023-03-17T11:00:41.713Z,97700.47
2023-03-17T11:02:43.099Z,97696.34
2023-03-17T11:04:44.411Z,97695.47
2023-03-17T11:06:47.199Z,97691.19
2023-03-17T11:08:51.365Z,97684.84
2023-03-17T11:10:52.712Z,97683.91
2023-03-17T11:12:54.025Z,97674.13
2023-03-17T11:14:55.930Z,97674.81
2023-03-17T11:16:57.276Z,97674.78
2023-03-17T11:18:58.578Z,97666.84
2023-03-17T11:21:00.131Z,97662.22
2023-03-17T11:23:02.223Z,97666.09
2023-03-17T11:25:04.346Z,97664.88
2023-03-17T11:27:05.660Z,97667.53
2023-03-17T11:29:06.997Z,97667.38
2023-03-17T11:31:09.473Z,97671.38
2023-03-17T11:33:10.859Z,97673.91
2023-03-17T11:35:12.463Z,97667.31
2023-03-17T11:37:13.926Z,97667.59
2023-03-17T11:39:15.561Z,97665.19
2023-03-17T11:41:17.304Z,97664.38
2023-03-17T11:43:19.132Z,97670.34
2023-03-17T11:45:20.746Z,97662.66
2023-03-17T11:47:22.096Z,97655.09
2023-03-17T11:49:24.238Z,97669.66
2023-03-17T11:51:27.858Z,97653.44
2023-03-17T11:53:29.187Z,97660.28
2023-03-17T11:55:30.484Z,97655.19
2023-03-17T11:57:32.953Z,97663.88
2023-03-17T11:59:34.420Z,97655.44
2023-03-17T12:01:35.766Z,97644.28
2023-03-17T12:03:38.850Z,97645.97
2023-03-17T12:05:40.264Z,97648.88
2023-03-17T12:07:42.159Z,97647.16
2023-03-17T12:09:43.466Z,97645.50
2023-03-17T12:11:44.829Z,97641.25
2023-03-17T12:13:46.669Z,97645.88
2023-03-17T12:15:48.000Z,97640.72
2023-03-17T12:17:49.362Z,97635.53
2023-03-17T12:19:51.145Z,97642.50
2023-03-17T12:21:54.316Z,97634.78
2023-03-17T12:23:56.673Z,97643.19
2023-03-17T12:25:58.164Z,97637.13
2023-03-17T12:27:59.942Z,97645.50
2023-03-17T12:30:02.243Z,97645.72
2023-03-17T12:32:03.576Z,97633.13
2023-03-17T12:34:05.395Z,97637.78
2023-03-17T12:36:06.902Z,97642.31
2023-03-17T12:38:08.244Z,97631.47
2023-03-17T12:40:10.461Z,97620.72
2023-03-17T12:42:11.845Z,97627.81
2023-03-17T12:44:13.228Z,97634.69
2023-03-17T12:46:14.718Z,97636.97
2023-03-17T12:48:16.130Z,97637.97
2023-03-17T12:50:17.507Z,97631.22
2023-03-17T12:52:18.807Z,97624.94
2023-03-17T12:54:21.536Z,97632.41
2023-03-17T12:56:22.937Z,97626.88
2023-03-17T12:58:26.361Z,97617.25
2023-03-17T13:00:30.397Z,97624.00
2023-03-17T13:02:31.711Z,97622.09
2023-03-17T13:04:35.527Z,97628.06
2023-03-17T13:06:36.936Z,97622.38
2023-03-17T13:08:38.323Z,97625.19
2023-03-17T13:10:40.082Z,97614.94
2023-03-17T13:12:44.705Z,97616.22
2023-03-17T13:14:46.380Z,97618.81
2023-03-17T13:16:47.819Z,97617.56
2023-03-17T13:18:49.446Z,97606.81
2023-03-17T13:20:50.840Z,97605.06
2023-03-17T13:22:52.179Z,97593.28
2023-03-17T13:24:53.479Z,97584.94
2023-03-17T13:26:55.515Z,97593.03
2023-03-17T13:28:57.208Z,97580.59
2023-03-17T13:30:58.611Z,97574.22
2023-03-17T13:33:00.090Z,97575.97
2023-03-17T13:35:02.254Z,97369.50
2023-03-17T13:37:05.452Z,97564.13
2023-03-17T13:39:18.653Z,97576.06
2023-03-17T13:41:21.027Z,97567.59
2023-03-17T13:43:22.584Z,97568.63
2023-03-17T13:45:24.045Z,97573.97
2023-03-17T13:47:25.449Z,97580.19
2023-03-17T13:49:26.801Z,97575.91
2023-03-17T13:51:28.188Z,97576.78
2023-03-17T13:53:29.558Z,97571.09
2023-03-17T13:55:32.017Z,97571.38
2023-03-17T13:57:33.555Z,97567.56
2023-03-17T13:59:34.908Z,97565.47
2023-03-17T14:01:36.265Z,97569.06
2023-03-17T14:03:37.708Z,97561.63
2023-03-17T14:05:39.397Z,97568.34
2023-03-17T14:07:40.735Z,97557.25
2023-03-17T14:09:42.386Z,97555.28
2023-03-17T14:11:43.791Z,97552.47
2023-03-17T14:13:45.111Z,97554.09
2023-03-17T14:15:48.098Z,97557.81
2023-03-17T14:17:49.461Z,97560.63
2023-03-17T14:19:53.841Z,97548.19
2023-03-17T14:21:55.337Z,97547.66
2023-03-17T14:23:56.659Z,97544.94
2023-03-17T14:25:57.998Z,97550.78
2023-03-17T14:27:59.332Z,97547.78
2023-03-17T14:30:03.567Z,97552.69
2023-03-17T14:32:05.255Z,97551.06
2023-03-17T14:34:06.720Z,97557.13
2023-03-17T14:36:12.859Z,97554.66
2023-03-17T14:38:16.257Z,97550.38
2023-03-17T14:40:17.626Z,97541.66
2023-03-17T14:42:19.918Z,97547.03
2023-03-17T14:44:21.324Z,97543.19
2023-03-17T14:46:22.804Z,97544.44
2023-03-17T14:48:24.375Z,97530.22
2023-03-17T14:50:25.958Z,97533.75
2023-03-17T14:52:27.410Z,97539.06
2023-03-17T14:54:28.767Z,97530.47
2023-03-17T14:56:30.566Z,97533.81
2023-03-17T14:58:31.872Z,97532.59
2023-03-17T15:00:34.184Z,97526.38
2023-03-17T15:02:35.757Z,97535.44
2023-03-17T15:04:37.135Z,97533.22
2023-03-17T15:06:38.445Z,97528.19
2023-03-17T15:08:41.062Z,97529.81
2023-03-17T15:10:42.434Z,97541.94
2023-03-17T15:12:46.224Z,97540.84
2023-03-17T15:14:47.624Z,97534.47
2023-03-17T15:16:49.738Z,97524.22
2023-03-17T15:18:51.085Z,97532.22
2023-03-17T15:20:52.464Z,97515.63
2023-03-17T15:22:53.779Z,97518.94
2023-03-17T15:24:55.122Z,97524.59
2023-03-17T15:26:56.478Z,97514.81
2023-03-17T15:28:57.786Z,97519.69
2023-03-17T15:30:59.194Z,97516.47
2023-03-17T15:33:00.877Z,97512.75
2023-03-17T15:35:02.243Z,97498.38
2023-03-17T15:37:03.725Z,97508.09
2023-03-17T15:39:05.103Z,97501.44
2023-03-17T15:41:06.427Z,97503.00
2023-03-17T15:43:07.809Z,97321.38
2023-03-17T15:45:09.217Z,97495.66
2023-03-17T15:47:10.872Z,97502.53
2023-03-17T15:49:12.227Z,97492.31
2023-03-17T15:51:13.577Z,97495.78
2023-03-17T15:53:14.937Z,97496.72
2023-03-17T15:55:16.691Z,97488.78
2023-03-17T15:57:18.013Z,97486.28
2023-03-17T15:59:22.136Z,97486.00
2023-03-17T16:01:25.807Z,97488.44
2023-03-17T16:03:29.065Z,97486.09
2023-03-17T16:05:31.098Z,97488.38
2023-03-17T16:07:32.469Z,97483.53
2023-03-17T16:09:35.517Z,97476.84
2023-03-17T16:11:40.547Z,97481.78
2023-03-17T16:13:42.410Z,97485.59
2023-03-17T16:15:43.826Z,97480.75
2023-03-17T16:17:45.241Z,97483.69
2023-03-17T16:19:46.693Z,97478.81
2023-03-17T16:21:50.691Z,97473.75
2023-03-17T16:23:52.015Z,97489.94
2023-03-17T16:25:55.467Z,97481.50
2023-03-17T16:28:01.744Z,97479.03
2023-03-17T16:30:03.350Z,97477.59
2023-03-17T16:32:04.860Z,97484.47
2023-03-17T16:34:06.261Z,97485.84
2023-03-17T16:36:07.673Z,97489.84
2023-03-17T16:38:09.100Z,97483.97
2023-03-17T16:40:10.426Z,97483.41
2023-03-17T16:42:11.729Z,97477.56
2023-03-17T16:44:13.406Z,97472.63
2023-03-17T16:46:14.868Z,97474.84
2023-03-17T16:48:16.212Z,97480.03
2023-03-17T16:50:20.311Z,97476.72
2023-03-17T16:52:22.452Z,97486.56
2023-03-17T16:54:23.862Z,97475.91
2023-03-17T16:56:25.230Z,97475.91
2023-03-17T16:58:26.615Z,97470.97
2023-03-17T17:00:28.020Z,97472.22
2023-03-17T17:02:29.366Z,97473.75
2023-03-17T17:04:31.249Z,97473.56
2023-03-17T17:06:35.760Z,97468.00
2023-03-17T17:08:37.094Z,97484.09
2023-03-17T17:10:38.465Z,97467.31
2023-03-17T17:14:41.516Z,97458.72
2023-03-17T17:16:42.918Z,97469.66
2023-03-17T17:18:44.257Z,97470.09
2023-03-17T17:20:45.633Z,97462.63
2023-03-17T17:22:46.998Z,97463.63
2023-03-17T17:24:48.704Z,97452.66
2023-03-17T17:26:50.028Z,97463.34
2023-03-17T17:28:51.628Z,97471.53
2023-03-17T17:30:53.122Z,97467.16
2023-03-17T17:32:54.444Z,97471.13
2023-03-17T17:34:55.778Z,97463.25
2023-03-17T17:36:57.086Z,97464.78
2023-03-17T17:38:58.495Z,97462.69
2023-03-17T17:40:59.828Z,97463.81
2023-03-17T17:43:02.197Z,97464.69
2023-03-17T17:45:03.494Z,97457.91
2023-03-17T17:47:04.832Z,97449.34
2023-03-17T17:49:06.194Z,97457.78
2023-03-17T17:51:07.602Z,97462.91
2023-03-17T17:53:11.984Z,97459.44
2023-03-17T17:55:13.377Z,97455.78
2023-03-17T17:57:14.713Z,97455.31
2023-03-17T17:59:16.211Z,97451.25
2023-03-17T18:01:21.909Z,97456.72
2023-03-17T18:03:25.238Z,97449.78
2023-03-17T18:05:26.628Z,97450.66
2023-03-17T18:07:27.973Z,97450.38
2023-03-17T18:09:31.884Z,97454.78
2023-03-17T18:11:33.277Z,97462.72
2023-03-17T18:13:36.213Z,97463.84
2023-03-17T18:15:37.777Z,97465.31
2023-03-17T18:17:39.140Z,97473.25
2023-03-17T18:19:40.442Z,97474.41
2023-03-17T18:21:42.059Z,97469.44
2023-03-17T18:23:49.995Z,97474.03
2023-03-17T18:25:52.019Z,97478.34
2023-03-17T18:27:53.428Z,97480.41
2023-03-17T18:29:54.724Z,97478.97
2023-03-17T18:31:56.075Z,97480.19
2023-03-17T18:33:57.400Z,97481.63
2023-03-17T18:35:58.839Z,97487.66
2023-03-17T18:38:00.331Z,97479.03
2023-03-17T18:40:17.290Z,97475.41
2023-03-17T18:42:19.833Z,97471.91
2023-03-17T18:44:23.543Z,97467.50
2023-03-17T18:46:30.697Z,97470.84
2023-03-17T18:48:32.064Z,97476.47
2023-03-17T18:50:33.716Z,97485.66
2023-03-17T18:52:35.158Z,97478.69
2023-03-17T18:54:36.605Z,97302.00
2023-03-17T18:56:38.061Z,97473.81
2023-03-17T18:58:39.424Z,97471.28
2023-03-17T19:00:41.306Z,97469.53
2023-03-17T19:02:42.609Z,97469.53
2023-03-17T19:04:47.076Z,97463.53
2023-03-17T19:06:48.411Z,97460.13
2023-03-17T19:08:52.877Z,97460.19
2023-03-17T19:10:54.274Z,97458.88
2023-03-17T19:12:56.176Z,97454.84
2023-03-17T19:15:00.328Z,97451.50
2023-03-17T19:17:02.182Z,97452.38
2023-03-17T19:19:03.522Z,97460.03
2023-03-17T19:21:04.834Z,97454.91
2023-03-17T19:23:09.888Z,97457.47
2023-03-17T19:25:11.531Z,97459.06
2023-03-17T19:27:12.892Z,97457.47
2023-03-17T19:29:20.028Z,97454.13
2023-03-17T19:31:22.098Z,97444.34
2023-03-17T19:33:23.449Z,97442.91
2023-03-17T19:35:24.740Z,97445.25
2023-03-17T19:37:26.073Z,97442.25
2023-03-17T19:39:27.651Z,97432.31
2023-03-17T19:41:32.328Z,97428.00
2023-03-17T19:43:40.675Z,97432.72
2023-03-17T19:45:42.776Z,97436.25
2023-03-17T19:47:44.207Z,97448.72
2023-03-17T19:49:52.066Z,97436.13
2023-03-17T19:51:53.402Z,97436.09
2023-03-17T19:53:54.707Z,97432.69
2023-03-17T19:55:56.965Z,97428.22
2023-03-17T19:57:58.329Z,97427.63
2023-03-17T19:59:59.624Z,97430.09
2023-03-17T20:02:00.917Z,97421.66
2023-03-17T20:04:02.296Z,97422.34
2023-03-17T20:06:06.276Z,97427.50
2023-03-17T20:08:07.872Z,97434.41
2023-03-17T20:10:09.206Z,97444.47
2023-03-17T20:12:10.777Z,97439.19
2023-03-17T20:14:12.080Z,97449.53
2023-03-17T20:16:13.708Z,97450.25
2023-03-17T20:18:15.202Z,97446.81
2023-03-17T20:20:16.517Z,97441.91
2023-03-17T20:22:17.890Z,97429.63
2023-03-17T20:24:19.248Z,97429.53
2023-03-17T20:26:23.394Z,97441.56
2023-03-17T20:28:26.843Z,97444.97
2023-03-17T20:30:32.400Z,97441.59
2023-03-17T20:32:37.252Z,97464.28
2023-03-17T20:34:38.940Z,97456.63
2023-03-17T20:36:42.448Z,97450.53
2023-03-17T20:38:43.947Z,97465.63
2023-03-17T20:40:45.276Z,97453.59
2023-03-17T20:42:50.098Z,97463.81
2023-03-17T20:44:53.010Z,97446.38
2023-03-17T20:47:00.351Z,97457.28
2023-03-17T20:49:02.087Z,97456.31
2023-03-17T20:51:06.710Z,97455.53
2023-03-17T20:53:08.675Z,97454.91
2023-03-17T20:55:13.798Z,97455.63
2023-03-17T20:57:16.948Z,97470.34
2023-03-17T20:59:19.675Z,97469.59
2023-03-17T21:01:21.462Z,97464.47
2023-03-17T21:03:22.936Z,97465.44
2023-03-17T21:05:24.269Z,97467.22
2023-03-17T21:07:26.428Z,97464.44
2023-03-17T21:09:28.314Z,97471.03
2023-03-17T21:11:30.651Z,97471.97
2023-03-17T21:13:32.880Z,97475.47
2023-03-17T21:15:34.445Z,97466.16
2023-03-17T21:17:35.801Z,97476.41
2023-03-17T21:19:37.123Z,97473.91
2023-03-17T21:21:38.460Z,97478.09
2023-03-17T21:23:41.031Z,97476.41
2023-03-17T21:25:43.308Z,97476.50
2023-03-17T21:27:45.740Z,97475.91
2023-03-17T21:29:48.131Z,97482.53
2023-03-17T21:31:49.569Z,97475.28
2023-03-17T21:33:51.150Z,97487.28
2023-03-17T21:35:52.460Z,97479.28
2023-03-17T21:37:53.758Z,97477.91
2023-03-17T21:39:55.914Z,97470.94
2023-03-17T21:42:02.241Z,97475.22
2023-03-17T21:44:03.574Z,97476.00
2023-03-17T21:46:05.365Z,97478.91
2023-03-17T21:48:09.616Z,97484.53
2023-03-17T21:50:10.982Z,97468.19
2023-03-17T21:52:12.656Z,97467.25
2023-03-17T21:54:14.241Z,97462.72
2023-03-17T21:56:16.008Z,97465.91
2023-03-17T21:58:17.873Z,97462.38
2023-03-17T22:00:19.178Z,97458.00
2023-03-17T22:02:20.879Z,97457.94
2023-03-17T22:04:22.191Z,97447.75
2023-03-17T22:06:26.167Z,97443.56
2023-03-17T22:08:27.716Z,97453.53
2023-03-17T22:10:29.273Z,97437.22
2023-03-17T22:12:30.904Z,97434.53
2023-03-17T22:14:34.235Z,97443.81
2023-03-17T22:16:35.755Z,97437.00
2023-03-17T22:18:37.667Z,97428.53
2023-03-17T22:20:39.139Z,97430.00
2023-03-17T22:22:40.431Z,97429.88
2023-03-17T22:24:48.022Z,97431.78
2023-03-17T22:26:49.324Z,97437.91
2023-03-17T22:28:50.679Z,97441.31
2023-03-17T22:30:52.087Z,97437.16
2023-03-17T22:32:53.501Z,97450.88
2023-03-17T22:34:55.022Z,97435.78
2023-03-17T22:36:56.596Z,97431.31
2023-03-17T22:38:58.357Z,97437.22
2023-03-17T22:41:02.783Z,97431.31
2023-03-17T22:43:04.097Z,97438.22
2023-03-17T22:45:05.444Z,97434.13
2023-03-17T22:47:06.740Z,97430.00
2023-03-17T22:49:08.060Z,97436.72
2023-03-17T22:51:09.451Z,97437.22
2023-03-17T22:53:10.786Z,97438.50
2023-03-17T22:55:12.092Z,97444.22
2023-03-17T22:57:13.523Z,97452.81
2023-03-17T22:59:14.892Z,97445.56
2023-03-17T23:01:16.461Z,97446.72
2023-03-17T23:03:17.840Z,97448.59
2023-03-17T23:05:20.320Z,97445.34
2023-03-17T23:07:21.626Z,97443.84
2023-03-17T23:09:23.681Z,97443.78
2023-03-17T23:11:28.154Z,97443.13
2023-03-17T23:13:30.424Z,97441.88
2023-03-17T23:15:31.722Z,97444.16
2023-03-17T23:17:33.032Z,97448.25
2023-03-17T23:19:34.676Z,97450.66
2023-03-17T23:21:36.275Z,97443.81
2023-03-17T23:23:38.228Z,97445.94
2023-03-17T23:25:39.523Z,97441.84
2023-03-17T23:27:40.878Z,97440.50
2023-03-17T23:29:42.548Z,97440.47
2023-03-17T23:31:43.884Z,97435.00
2023-03-17T23:33:46.116Z,97445.44
2023-03-17T23:35:47.797Z,97438.78
2023-03-17T23:37:49.090Z,97440.56
2023-03-17T23:39:50.495Z,97439.16
2023-03-17T23:41:51.804Z,97439.34
2023-03-17T23:43:53.155Z,97436.22
2023-03-17T23:45:54.512Z,97430.44
2023-03-17T23:47:57.481Z,97429.78
2023-03-17T23:49:58.867Z,97432.50
2023-03-17T23:52:00.649Z,97433.50
2023-03-17T23:54:01.996Z,97425.91
2023-03-17T23:56:03.843Z,97430.22